Time;durP1;ratioP1;P1;durP2;ratioP2;P2;SDS_P1;SDS_P2;PMS_P1;PMS_P2;Temp;Humidity;BMP_temperature;BMP_pressure;BME280_temperature;BME280_humidity;BME280_pressure;Samples;Min_cycle;Max_cycle;Signal;HPM_P1;HPM_P2
2021/12/21 00:01:15;;;;;;;1.90;1.80;;;;;;;;;;5114520;28;20253;-80
2021/12/21 00:03:43;;;;;;;2.40;2.20;;;;;;;;;;5114232;28;20736;-80
2021/12/21 00:06:10;;;;;;;2.07;1.97;;;;;;;;;;5104454;28;20207;-80
2021/12/21 00:08:38;;;;;;;4.97;2.93;;;;;;;;;;5093826;28;20297;-79
2021/12/21 00:11:05;;;;;;;4.67;2.60;;;;;;;;;;5094165;28;20200;-79
2021/12/21 00:13:58;;;;;;;2.73;2.50;;;;;;;;;;5093800;28;20579;-79
2021/12/21 00:19:25;;;;;;;2.67;2.43;;;;;;;;;;5094117;28;20287;-79
2021/12/21 00:21:58;;;;;;;2.80;2.50;;;;;;;;;;5093866;28;20603;-79
2021/12/21 00:24:31;;;;;;;4.20;2.40;;;;;;;;;;5094030;28;20271;-80
2021/12/21 00:27:00;;;;;;;6.27;3.00;;;;;;;;;;5093554;28;20633;-79
2021/12/21 00:29:27;;;;;;;3.43;2.53;;;;;;;;;;5093690;28;20200;-79
2021/12/21 00:31:56;;;;;;;3.63;2.33;;;;;;;;;;5093358;28;20287;-80
2021/12/21 00:34:25;;;;;;;2.13;1.80;;;;;;;;;;5093735;28;20235;-79
2021/12/21 00:36:52;;;;;;;2.23;2.03;;;;;;;;;;5093555;28;20596;-79
2021/12/21 00:39:19;;;;;;;2.03;1.90;;;;;;;;;;5093223;28;20795;-79
2021/12/21 00:41:47;;;;;;;2.00;1.90;;;;;;;;;;5093580;28;20204;-79
2021/12/21 00:44:14;;;;;;;1.87;1.77;;;;;;;;;;5093172;28;20193;-79
2021/12/21 00:46:43;;;;;;;4.87;2.50;;;;;;;;;;5093465;28;20271;-79
2021/12/21 00:49:16;;;;;;;2.60;2.40;;;;;;;;;;5093322;28;20209;-79
2021/12/21 00:51:44;;;;;;;2.23;2.07;;;;;;;;;;5093079;28;20187;-79
2021/12/21 00:54:12;;;;;;;3.67;2.37;;;;;;;;;;5100227;28;20672;-79
2021/12/21 00:56:39;;;;;;;2.30;2.10;;;;;;;;;;5113309;28;20286;-79
2021/12/21 00:59:07;;;;;;;2.30;2.10;;;;;;;;;;5113265;28;20633;-79
2021/12/21 01:01:37;;;;;;;2.87;2.00;;;;;;;;;;5113261;28;20202;-79
2021/12/21 01:04:08;;;;;;;2.67;2.10;;;;;;;;;;5112395;28;20207;-79
2021/12/21 01:06:43;;;;;;;2.30;2.10;;;;;;;;;;5113024;28;20640;-79
2021/12/21 01:09:20;;;;;;;3.30;2.57;;;;;;;;;;5113126;28;20234;-79
2021/12/21 01:11:52;;;;;;;2.67;2.47;;;;;;;;;;5113278;28;20206;-79
2021/12/21 01:14:51;;;;;;;3.73;3.43;;;;;;;;;;5113377;28;20184;-79
2021/12/21 01:17:24;;;;;;;2.33;2.07;;;;;;;;;;5112837;28;20192;-79
2021/12/21 01:20:01;;;;;;;4.43;2.30;;;;;;;;;;5112856;28;20208;-79
2021/12/21 01:22:46;;;;;;;2.70;2.50;;;;;;;;;;5093896;28;20191;-79
2021/12/21 01:25:23;;;;;;;3.13;2.50;;;;;;;;;;5092799;28;20191;-79
2021/12/21 01:27:58;;;;;;;2.00;1.90;;;;;;;;;;5092536;28;20192;-79
2021/12/21 01:30:36;;;;;;;3.17;2.50;;;;;;;;;;5092252;28;20230;-79
2021/12/21 01:33:18;;;;;;;2.37;2.17;;;;;;;;;;5092413;28;20190;-79
2021/12/21 01:35:49;;;;;;;4.10;2.40;;;;;;;;;;5092755;28;20207;-80
2021/12/21 01:38:25;;;;;;;3.27;2.63;;;;;;;;;;5092341;28;20199;-80
2021/12/21 01:40:59;;;;;;;3.23;2.93;;;;;;;;;;5092140;28;20253;-80
2021/12/21 01:43:32;;;;;;;4.03;2.63;;;;;;;;;;5092245;28;20172;-80
2021/12/21 01:51:29;;;;;;;2.30;2.10;;;;;;;;;;5092127;28;20180;-80
2021/12/21 01:53:58;;;;;;;3.33;2.30;;;;;;;;;;5092364;28;20224;-79
2021/12/21 01:56:25;;;;;;;2.77;2.37;;;;;;;;;;5103097;28;20188;-79
2021/12/21 01:58:53;;;;;;;2.93;2.50;;;;;;;;;;5112747;28;20661;-79
2021/12/21 02:01:24;;;;;;;3.07;2.40;;;;;;;;;;5112362;28;20227;-79
2021/12/21 02:03:51;;;;;;;2.90;2.23;;;;;;;;;;5112645;28;20269;-79
2021/12/21 02:06:20;;;;;;;4.40;2.87;;;;;;;;;;5112348;28;20196;-79
2021/12/21 02:08:48;;;;;;;7.00;2.83;;;;;;;;;;5112096;28;20265;-79
2021/12/21 02:11:18;;;;;;;3.70;2.70;;;;;;;;;;5112600;28;20658;-79
2021/12/21 02:13:48;;;;;;;2.63;2.27;;;;;;;;;;5112542;28;20562;-78
2021/12/21 02:16:21;;;;;;;3.27;2.33;;;;;;;;;;5116778;28;20183;-78
2021/12/21 02:18:54;;;;;;;5.80;2.80;;;;;;;;;;5116853;27;20541;-79
2021/12/21 02:21:30;;;;;;;4.70;3.60;;;;;;;;;;5116323;28;20223;-79
2021/12/21 02:24:02;;;;;;;6.53;3.63;;;;;;;;;;5116366;28;20193;-79
2021/12/21 02:26:43;;;;;;;7.17;3.60;;;;;;;;;;5116669;28;20223;-79
2021/12/21 02:29:17;;;;;;;3.43;3.13;;;;;;;;;;5116639;28;20222;-79
2021/12/21 02:31:47;;;;;;;9.10;4.13;;;;;;;;;;5116243;28;20179;-79
2021/12/21 02:34:15;;;;;;;5.73;3.80;;;;;;;;;;5116211;28;20278;-79
2021/12/21 02:36:49;;;;;;;4.50;3.40;;;;;;;;;;5116028;28;20196;-78
2021/12/21 02:39:16;;;;;;;3.57;3.23;;;;;;;;;;5116020;28;20187;-78
2021/12/21 02:41:44;;;;;;;6.60;3.70;;;;;;;;;;5099536;28;20568;-79
2021/12/21 02:44:12;;;;;;;4.70;3.60;;;;;;;;;;5095412;28;20200;-78
2021/12/21 02:46:40;;;;;;;5.93;3.60;;;;;;;;;;5095777;28;20295;-79
2021/12/21 02:49:08;;;;;;;3.77;2.93;;;;;;;;;;5095800;28;20230;-78
2021/12/21 02:51:38;;;;;;;4.90;3.00;;;;;;;;;;5095268;28;20188;-78
2021/12/21 02:54:07;;;;;;;2.60;2.30;;;;;;;;;;5095363;28;20196;-78
2021/12/21 02:56:34;;;;;;;4.00;2.53;;;;;;;;;;5095121;28;20629;-78
2021/12/21 02:59:01;;;;;;;3.20;2.60;;;;;;;;;;5095377;28;20196;-78
2021/12/21 03:01:29;;;;;;;3.50;2.77;;;;;;;;;;5095435;28;20716;-78
2021/12/21 03:03:57;;;;;;;2.33;2.13;;;;;;;;;;5095221;28;20192;-78
2021/12/21 03:09:30;;;;;;;2.40;2.07;;;;;;;;;;5094546;28;20235;-78
2021/12/21 03:12:09;;;;;;;2.00;1.80;;;;;;;;;;5095055;28;20188;-79
2021/12/21 03:14:37;;;;;;;2.30;2.10;;;;;;;;;;5095384;28;20184;-79
2021/12/21 03:17:05;;;;;;;3.93;2.70;;;;;;;;;;5094940;28;20196;-79
2021/12/21 03:19:32;;;;;;;2.20;2.00;;;;;;;;;;5094810;28;20197;-79
2021/12/21 03:22:00;;;;;;;2.77;2.10;;;;;;;;;;5094710;28;20274;-79
2021/12/21 03:24:28;;;;;;;2.07;1.90;;;;;;;;;;5096569;28;20247;-78
2021/12/21 03:26:56;;;;;;;2.00;1.90;;;;;;;;;;5113966;28;20245;-78
2021/12/21 03:29:24;;;;;;;2.60;2.23;;;;;;;;;;5097852;28;20192;-79
2021/12/21 03:31:51;;;;;;;2.70;2.33;;;;;;;;;;5094452;28;20291;-78
2021/12/21 03:34:18;;;;;;;2.83;2.40;;;;;;;;;;5094466;28;20192;-79
2021/12/21 03:36:46;;;;;;;2.70;2.33;;;;;;;;;;5094437;28;20566;-78
2021/12/21 03:39:18;;;;;;;4.20;2.17;;;;;;;;;;5094289;28;20203;-78
2021/12/21 03:41:49;;;;;;;2.73;2.10;;;;;;;;;;5094054;28;20283;-78
2021/12/21 03:44:17;;;;;;;2.13;1.97;;;;;;;;;;5094075;28;20220;-78
2021/12/21 03:46:50;;;;;;;2.23;2.00;;;;;;;;;;5094610;28;20309;-80
2021/12/21 03:52:01;;;;;;;3.60;2.80;;;;;;;;;;5109420;28;20196;-78
2021/12/21 03:54:28;;;;;;;8.63;5.43;;;;;;;;;;5114588;28;20199;-78
2021/12/21 03:56:57;;;;;;;3.77;3.17;;;;;;;;;;5114508;28;20664;-78
2021/12/21 03:59:25;;;;;;;2.40;2.20;;;;;;;;;;5114263;28;20683;-79
2021/12/21 04:01:52;;;;;;;1.93;1.63;;;;;;;;;;5114241;28;20254;-78
2021/12/21 04:04:20;;;;;;;1.70;1.60;;;;;;;;;;5114271;28;20199;-78
2021/12/21 04:06:48;;;;;;;1.93;1.83;;;;;;;;;;5114512;28;20199;-78
2021/12/21 04:09:15;;;;;;;3.60;3.27;;;;;;;;;;5110654;28;20833;-77
2021/12/21 04:11:43;;;;;;;5.13;3.60;;;;;;;;;;5106397;28;20287;-78
2021/12/21 04:14:12;;;;;;;3.37;3.07;;;;;;;;;;5097206;28;20204;-78
2021/12/21 04:16:39;;;;;;;1.93;1.83;;;;;;;;;;5092646;28;20200;-78
2021/12/21 04:19:07;;;;;;;1.70;1.60;;;;;;;;;;5092646;28;20196;-78
2021/12/21 04:21:34;;;;;;;1.90;1.80;;;;;;;;;;5091976;28;20311;-78
2021/12/21 04:24:01;;;;;;;2.10;1.90;;;;;;;;;;5092543;28;20638;-78
2021/12/21 04:26:28;;;;;;;2.13;2.03;;;;;;;;;;5092496;28;20196;-78
2021/12/21 04:28:56;;;;;;;2.37;2.17;;;;;;;;;;5092647;28;20718;-78
2021/12/21 04:31:24;;;;;;;2.63;2.07;;;;;;;;;;5091896;28;20199;-78
2021/12/21 04:33:52;;;;;;;3.83;2.83;;;;;;;;;;5107415;28;20203;-78
2021/12/21 04:36:19;;;;;;;3.57;3.27;;;;;;;;;;5113058;28;20192;-77
2021/12/21 04:38:49;;;;;;;2.87;2.67;;;;;;;;;;5096684;28;20192;-77
2021/12/21 04:41:22;;;;;;;4.40;2.67;;;;;;;;;;5092066;28;20223;-78
2021/12/21 04:43:50;;;;;;;2.80;2.57;;;;;;;;;;5092215;28;20279;-79
2021/12/21 04:46:18;;;;;;;2.60;2.40;;;;;;;;;;5092226;28;20579;-78
2021/12/21 04:48:47;;;;;;;3.47;2.60;;;;;;;;;;5091708;28;20243;-78
2021/12/21 04:51:14;;;;;;;2.30;1.97;;;;;;;;;;5092299;28;20591;-78
2021/12/21 04:53:42;;;;;;;2.23;2.00;;;;;;;;;;5091986;28;20258;-79
2021/12/21 04:56:09;;;;;;;2.50;2.30;;;;;;;;;;5092200;28;20199;-79
2021/12/21 04:58:36;;;;;;;2.50;2.30;;;;;;;;;;5091880;28;20257;-79
2021/12/21 05:01:04;;;;;;;5.10;3.33;;;;;;;;;;5091637;28;20650;-78
2021/12/21 05:03:32;;;;;;;9.30;5.20;;;;;;;;;;5093871;28;20286;-79
2021/12/21 05:06:01;;;;;;;9.93;5.67;;;;;;;;;;5112433;28;20627;-79
2021/12/21 05:08:32;;;;;;;9.30;6.00;;;;;;;;;;5111789;28;20319;-78
2021/12/21 05:11:03;;;;;;;16.33;7.80;;;;;;;;;;5111984;28;20219;-78
2021/12/21 05:13:31;;;;;;;11.57;7.97;;;;;;;;;;5105484;28;20603;-78
2021/12/21 05:15:59;;;;;;;8.27;6.50;;;;;;;;;;5100718;28;20192;-78
2021/12/21 05:18:27;;;;;;;6.90;5.20;;;;;;;;;;5101323;28;20240;-78
2021/12/21 05:20:55;;;;;;;5.37;4.03;;;;;;;;;;5102538;28;20265;-78
2021/12/21 05:23:24;;;;;;;4.17;3.23;;;;;;;;;;5102381;28;20184;-78
2021/12/21 05:25:52;;;;;;;5.87;4.13;;;;;;;;;;5102387;28;20270;-77
2021/12/21 05:28:19;;;;;;;5.63;4.87;;;;;;;;;;5103134;28;20199;-78
2021/12/21 05:30:47;;;;;;;2.03;1.93;;;;;;;;;;5107893;28;20196;-78
2021/12/21 05:33:15;;;;;;;3.10;2.77;;;;;;;;;;5096665;28;20290;-78
2021/12/21 05:35:43;;;;;;;3.13;2.87;;;;;;;;;;5092068;28;20245;-78
2021/12/21 05:38:12;;;;;;;2.20;2.00;;;;;;;;;;5092279;28;20196;-79
2021/12/21 05:40:44;;;;;;;8.00;5.70;;;;;;;;;;5110663;28;20668;-78
2021/12/21 05:43:12;;;;;;;5.17;3.80;;;;;;;;;;5101173;28;20177;-78
2021/12/21 05:45:40;;;;;;;10.07;7.43;;;;;;;;;;5103816;28;20660;-77
2021/12/21 05:48:08;;;;;;;5.87;4.80;;;;;;;;;;5108045;28;20541;-78
2021/12/21 05:50:36;;;;;;;7.13;3.80;;;;;;;;;;5101308;28;20207;-78
2021/12/21 05:53:03;;;;;;;5.00;4.50;;;;;;;;;;5101779;28;20196;-78
2021/12/21 05:55:31;;;;;;;5.97;2.70;;;;;;;;;;5104083;28;20223;-78
2021/12/21 05:58:00;;;;;;;3.60;2.70;;;;;;;;;;5101530;28;20271;-79
2021/12/21 06:00:28;;;;;;;5.00;4.40;;;;;;;;;;5102413;28;20219;-79
2021/12/21 06:02:56;;;;;;;4.10;3.70;;;;;;;;;;5100928;28;20227;-78
2021/12/21 06:05:23;;;;;;;4.97;4.13;;;;;;;;;;5103793;28;20201;-78
2021/12/21 06:07:52;;;;;;;4.27;3.87;;;;;;;;;;5101490;28;20226;-78
2021/12/21 06:10:25;;;;;;;3.03;2.70;;;;;;;;;;5103499;28;20188;-78
2021/12/21 06:13:15;;;;;;;4.57;3.43;;;;;;;;;;5100644;28;20195;-78
2021/12/21 06:15:55;;;;;;;3.67;3.13;;;;;;;;;;5102012;28;20738;-78
2021/12/21 06:24:45;;;;;;;11.40;7.23;;;;;;;;;;5091953;28;20306;-78
2021/12/21 06:26:49;;;;;;;8.27;5.47;;;;;;;;;;5091630;28;20660;-78
2021/12/21 06:29:17;;;;;;;10.70;7.20;;;;;;;;;;5091775;28;20672;-78
2021/12/21 06:31:46;;;;;;;10.50;7.07;;;;;;;;;;5091769;28;20287;-78
2021/12/21 06:34:14;;;;;;;10.20;6.73;;;;;;;;;;5108254;28;20200;-78
2021/12/21 06:36:41;;;;;;;2.80;2.60;;;;;;;;;;5112106;28;20706;-78
2021/12/21 06:39:09;;;;;;;3.00;2.60;;;;;;;;;;5112349;28;20617;-79
2021/12/21 06:41:37;;;;;;;3.70;2.53;;;;;;;;;;5091516;28;20703;-80
2021/12/21 06:44:08;;;;;;;3.50;2.57;;;;;;;;;;5092055;28;20200;-80
2021/12/21 06:46:54;;;;;;;2.27;2.07;;;;;;;;;;5108393;28;20195;-80
2021/12/21 06:52:19;;;;;;;1.70;1.43;;;;;;;;;;5086102;28;20189;-82
2021/12/21 06:54:47;;;;;;;3.97;3.57;;;;;;;;;;5094019;28;20219;-81
2021/12/21 06:57:14;;;;;;;2.40;2.20;;;;;;;;;;5110246;28;20257;-80
2021/12/21 06:59:42;;;;;;;3.33;2.83;;;;;;;;;;5094692;28;20196;-81
2021/12/21 07:02:10;;;;;;;1.73;1.63;;;;;;;;;;5106172;28;20216;-81
2021/12/21 07:04:40;;;;;;;4.53;3.57;;;;;;;;;;5106238;28;20195;-81
2021/12/21 07:07:09;;;;;;;6.03;3.67;;;;;;;;;;5099965;28;20257;-81
2021/12/21 07:09:41;;;;;;;4.83;3.43;;;;;;;;;;5111511;28;20227;-81
2021/12/21 07:12:31;;;;;;;3.03;2.50;;;;;;;;;;5101623;28;20190;-82
2021/12/21 07:18:11;;;;;;;1.80;1.70;;;;;;;;;;5105863;28;20185;-82
2021/12/21 07:20:40;;;;;;;6.07;4.27;;;;;;;;;;5094826;28;20191;-82
2021/12/21 07:23:07;;;;;;;3.77;3.30;;;;;;;;;;5109917;28;20264;-82
2021/12/21 07:25:34;;;;;;;4.57;3.30;;;;;;;;;;5099598;28;20618;-82
2021/12/21 07:28:02;;;;;;;3.47;2.53;;;;;;;;;;5111665;28;20221;-81
2021/12/21 07:30:29;;;;;;;10.03;6.80;;;;;;;;;;5099412;28;20200;-81
2021/12/21 07:32:57;;;;;;;2.33;2.20;;;;;;;;;;5105975;28;20191;-83
2021/12/21 07:35:24;;;;;;;2.50;2.30;;;;;;;;;;5107979;28;20192;-80
2021/12/21 07:37:53;;;;;;;2.53;2.30;;;;;;;;;;5107905;28;20253;-80
2021/12/21 07:40:21;;;;;;;2.90;2.60;;;;;;;;;;5098188;28;20668;-79
2021/12/21 07:42:49;;;;;;;3.30;2.20;;;;;;;;;;5108716;28;20596;-80
2021/12/21 07:45:17;;;;;;;2.07;1.97;;;;;;;;;;5103763;28;20199;-80
2021/12/21 07:47:44;;;;;;;2.23;2.07;;;;;;;;;;5110698;28;20191;-79
2021/12/21 07:50:13;;;;;;;2.03;1.83;;;;;;;;;;5096816;28;20215;-79
2021/12/21 07:52:41;;;;;;;1.83;1.70;;;;;;;;;;5106433;28;20665;-78
2021/12/21 07:55:11;;;;;;;1.70;1.60;;;;;;;;;;5100409;28;20270;-80
2021/12/21 07:57:38;;;;;;;1.53;1.43;;;;;;;;;;5109836;28;20245;-80
2021/12/21 08:00:07;;;;;;;1.60;1.50;;;;;;;;;;5094443;28;20215;-79
2021/12/21 08:02:35;;;;;;;1.70;1.60;;;;;;;;;;5100876;28;20265;-80
2021/12/21 08:05:05;;;;;;;6.27;1.80;;;;;;;;;;5103303;28;20227;-80
2021/12/21 08:07:36;;;;;;;2.50;1.60;;;;;;;;;;5108932;28;20203;-80
2021/12/21 08:10:18;;;;;;;1.63;1.53;;;;;;;;;;5097270;28;20191;-80
2021/12/21 08:12:48;;;;;;;1.87;1.70;;;;;;;;;;5105063;28;20684;-80
2021/12/21 08:15:15;;;;;;;1.70;1.60;;;;;;;;;;5106143;28;20194;-80
2021/12/21 08:17:42;;;;;;;1.60;1.50;;;;;;;;;;5098429;28;20210;-79
2021/12/21 08:20:10;;;;;;;5.83;1.60;;;;;;;;;;5110495;28;20200;-81
2021/12/21 08:22:37;;;;;;;1.83;1.47;;;;;;;;;;5099574;28;20226;-80
2021/12/21 08:25:06;;;;;;;1.73;1.63;;;;;;;;;;5103260;28;20196;-81
2021/12/21 08:27:40;;;;;;;2.00;1.73;;;;;;;;;;5103658;28;20202;-82
2021/12/21 08:30:10;;;;;;;5.37;2.13;;;;;;;;;;5098443;28;20196;-81
2021/12/21 08:32:37;;;;;;;3.23;1.93;;;;;;;;;;5095901;28;20614;-83
2021/12/21 08:35:06;;;;;;;2.37;2.00;;;;;;;;;;5107246;28;20192;-81
2021/12/21 08:37:34;;;;;;;2.27;2.07;;;;;;;;;;5100912;28;20195;-81
2021/12/21 08:40:02;;;;;;;3.00;1.90;;;;;;;;;;5102192;28;20616;-82
2021/12/21 08:42:29;;;;;;;1.83;1.67;;;;;;;;;;5108250;28;20215;-82
2021/12/21 08:45:01;;;;;;;2.23;2.03;;;;;;;;;;5095844;28;20206;-81
2021/12/21 08:47:32;;;;;;;2.60;2.40;;;;;;;;;;5106524;28;20196;-82
2021/12/21 08:50:04;;;;;;;1.70;1.60;;;;;;;;;;5092686;28;20279;-81
2021/12/21 08:52:32;;;;;;;2.47;2.10;;;;;;;;;;5108746;28;20187;-81
2021/12/21 08:54:59;;;;;;;2.00;1.80;;;;;;;;;;5096051;28;20207;-81
2021/12/21 08:57:26;;;;;;;1.90;1.80;;;;;;;;;;5101776;28;20580;-81
2021/12/21 08:59:54;;;;;;;1.80;1.70;;;;;;;;;;5113082;28;20223;-80
2021/12/21 09:02:21;;;;;;;2.80;1.60;;;;;;;;;;5101597;28;20595;-80
2021/12/21 09:04:50;;;;;;;1.57;1.47;;;;;;;;;;5108392;28;20188;-80
2021/12/21 09:07:17;;;;;;;1.70;1.20;;;;;;;;;;5093134;28;21570;-80
2021/12/21 09:09:44;;;;;;;2.10;1.90;;;;;;;;;;5099136;28;20202;-80
2021/12/21 09:12:11;;;;;;;1.93;1.83;;;;;;;;;;5102649;27;20253;-80
2021/12/21 09:14:39;;;;;;;1.40;1.23;;;;;;;;;;5106738;28;20227;-80
2021/12/21 09:17:07;;;;;;;2.10;2.00;;;;;;;;;;5097352;28;20673;-80
2021/12/21 09:19:34;;;;;;;3.27;2.67;;;;;;;;;;5103038;28;20203;-80
2021/12/21 09:22:03;;;;;;;2.10;1.90;;;;;;;;;;5100266;28;20212;-80
2021/12/21 09:24:31;;;;;;;2.23;1.70;;;;;;;;;;5102786;28;20278;-80
2021/12/21 09:26:58;;;;;;;3.13;1.77;;;;;;;;;;5095453;28;20207;-79
2021/12/21 09:29:25;;;;;;;3.60;2.40;;;;;;;;;;5095741;28;20579;-82
2021/12/21 09:31:53;;;;;;;1.47;1.30;;;;;;;;;;5112521;28;20195;-82
2021/12/21 09:34:23;;;;;;;2.10;1.47;;;;;;;;;;5100819;28;20196;-81
2021/12/21 09:36:52;;;;;;;1.77;1.67;;;;;;;;;;5100032;28;20196;-82
2021/12/21 09:39:21;;;;;;;2.67;1.73;;;;;;;;;;5108348;28;20206;-82
2021/12/21 09:41:48;;;;;;;2.30;1.77;;;;;;;;;;5104985;28;20199;-81
2021/12/21 09:44:15;;;;;;;2.67;2.00;;;;;;;;;;5101378;28;20211;-82
2021/12/21 09:46:43;;;;;;;2.40;1.83;;;;;;;;;;5106857;28;20274;-81
2021/12/21 09:49:11;;;;;;;3.63;2.00;;;;;;;;;;5095429;28;20668;-82
2021/12/21 09:51:40;;;;;;;3.77;2.17;;;;;;;;;;5106545;28;20250;-82
2021/12/21 09:54:08;;;;;;;1.73;1.63;;;;;;;;;;5101904;28;20192;-82
2021/12/21 09:56:37;;;;;;;2.67;2.23;;;;;;;;;;5098445;28;20196;-81
2021/12/21 09:59:04;;;;;;;1.97;1.73;;;;;;;;;;5109456;28;20283;-83
2021/12/21 10:01:32;;;;;;;1.80;1.70;;;;;;;;;;5096461;28;20197;-82
2021/12/21 10:03:59;;;;;;;1.87;1.60;;;;;;;;;;5100414;28;20262;-82
2021/12/21 10:06:26;;;;;;;1.47;1.37;;;;;;;;;;5091639;28;20196;-82
2021/12/21 10:08:53;;;;;;;8.10;6.10;;;;;;;;;;5107646;28;20610;-82
2021/12/21 10:11:22;;;;;;;2.33;2.13;;;;;;;;;;5094641;28;20219;-83
2021/12/21 10:13:53;;;;;;;4.43;1.47;;;;;;;;;;5103423;28;20275;-82
2021/12/21 10:16:22;;;;;;;1.60;1.50;;;;;;;;;;5103918;28;20215;-82
2021/12/21 10:18:49;;;;;;;1.50;1.40;;;;;;;;;;5111578;28;20253;-82
2021/12/21 10:21:17;;;;;;;3.00;1.70;;;;;;;;;;5111712;28;20195;-82
2021/12/21 10:23:47;;;;;;;2.80;1.53;;;;;;;;;;5111828;28;20219;-82
2021/12/21 10:26:19;;;;;;;1.27;1.17;;;;;;;;;;5112606;28;20655;-82
2021/12/21 10:28:49;;;;;;;1.53;1.43;;;;;;;;;;5112147;28;20183;-82
2021/12/21 10:31:26;;;;;;;2.87;2.20;;;;;;;;;;5112471;28;20572;-82
2021/12/21 10:33:56;;;;;;;2.80;2.27;;;;;;;;;;5112213;28;20179;-82
2021/12/21 10:36:25;;;;;;;2.00;1.70;;;;;;;;;;5114801;28;20195;-82
2021/12/21 10:38:56;;;;;;;3.40;2.73;;;;;;;;;;5116521;28;20201;-82
2021/12/21 10:41:29;;;;;;;1.93;1.73;;;;;;;;;;5116199;28;20188;-82
2021/12/21 10:43:58;;;;;;;4.43;2.20;;;;;;;;;;5116378;28;20279;-82
2021/12/21 10:46:29;;;;;;;1.80;1.70;;;;;;;;;;5115990;28;20560;-82
2021/12/21 10:49:06;;;;;;;2.10;1.60;;;;;;;;;;5116011;28;20201;-82
2021/12/21 10:51:33;;;;;;;1.90;1.80;;;;;;;;;;5115993;28;20640;-82
2021/12/21 10:54:01;;;;;;;1.20;1.20;;;;;;;;;;5115963;28;20203;-82
2021/12/21 10:56:28;;;;;;;2.37;1.83;;;;;;;;;;5115838;28;20195;-82
2021/12/21 10:58:56;;;;;;;1.63;1.53;;;;;;;;;;5115826;28;20253;-82
2021/12/21 11:01:27;;;;;;;2.13;1.60;;;;;;;;;;5115723;28;20199;-82
2021/12/21 11:03:57;;;;;;;2.03;1.87;;;;;;;;;;5116031;28;20581;-82
2021/12/21 11:06:29;;;;;;;2.10;1.90;;;;;;;;;;5115633;28;20195;-82
2021/12/21 11:08:57;;;;;;;2.63;1.60;;;;;;;;;;5115482;28;20238;-82
2021/12/21 11:11:29;;;;;;;2.13;1.93;;;;;;;;;;5115551;28;20286;-82
2021/12/21 11:14:08;;;;;;;3.03;1.63;;;;;;;;;;5115622;28;20184;-82
2021/12/21 11:16:38;;;;;;;1.60;1.50;;;;;;;;;;5115760;28;20270;-82
2021/12/21 11:19:08;;;;;;;1.57;1.47;;;;;;;;;;5115478;28;20219;-82
2021/12/21 11:21:35;;;;;;;3.07;2.10;;;;;;;;;;5115687;28;20554;-82
2021/12/21 11:24:04;;;;;;;5.37;4.30;;;;;;;;;;5115237;28;20279;-81
2021/12/21 11:26:33;;;;;;;2.37;2.17;;;;;;;;;;5115595;28;20234;-82
2021/12/21 11:29:03;;;;;;;2.27;2.13;;;;;;;;;;5115222;28;20644;-82
2021/12/21 11:31:31;;;;;;;2.90;2.60;;;;;;;;;;5115151;28;20668;-82
2021/12/21 11:33:59;;;;;;;4.97;4.47;;;;;;;;;;5115423;28;20272;-82
2021/12/21 11:39:14;;;;;;;2.33;2.13;;;;;;;;;;5115212;28;20242;-82
2021/12/21 11:41:42;;;;;;;3.13;2.47;;;;;;;;;;5114976;28;20202;-82
2021/12/21 11:44:15;;;;;;;5.13;4.43;;;;;;;;;;5114867;28;20227;-82
2021/12/21 11:46:51;;;;;;;3.03;2.73;;;;;;;;;;5114252;28;20237;-82
2021/12/21 11:49:25;;;;;;;2.97;2.77;;;;;;;;;;5115189;28;20607;-82
2021/12/21 11:52:06;;;;;;;2.47;2.27;;;;;;;;;;5114806;28;20664;-82
2021/12/21 11:54:48;;;;;;;2.40;2.20;;;;;;;;;;5114790;28;20187;-82
2021/12/21 11:57:16;;;;;;;2.90;2.40;;;;;;;;;;5114768;28;20739;-82
2021/12/21 11:59:43;;;;;;;2.47;2.27;;;;;;;;;;5114720;28;20191;-82
2021/12/21 12:02:10;;;;;;;1.90;1.80;;;;;;;;;;5111503;28;20276;-82
2021/12/21 12:04:42;;;;;;;1.80;1.70;;;;;;;;;;5103543;28;20216;-82
2021/12/21 12:07:19;;;;;;;1.80;1.70;;;;;;;;;;5103525;28;20204;-84
2021/12/21 12:10:08;;;;;;;2.10;1.90;;;;;;;;;;5093583;28;20293;-82
2021/12/21 12:12:35;;;;;;;2.70;1.90;;;;;;;;;;5110659;28;20686;-82
2021/12/21 12:15:05;;;;;;;4.50;2.07;;;;;;;;;;5093349;28;20253;-83
2021/12/21 12:17:33;;;;;;;5.30;3.20;;;;;;;;;;5093476;28;20727;-83
2021/12/21 12:20:07;;;;;;;5.83;2.87;;;;;;;;;;5105209;28;20191;-84
2021/12/21 12:22:37;;;;;;;2.33;2.13;;;;;;;;;;5114322;27;20194;-83
2021/12/21 12:25:06;;;;;;;2.13;1.90;;;;;;;;;;5114391;28;20211;-83
2021/12/21 12:27:44;;;;;;;2.13;1.87;;;;;;;;;;5113858;28;20192;-83
2021/12/21 12:30:13;;;;;;;2.40;1.90;;;;;;;;;;5113926;28;20600;-82
2021/12/21 12:32:42;;;;;;;2.10;2.00;;;;;;;;;;5097530;28;20670;-84
2021/12/21 12:35:11;;;;;;;1.47;1.37;;;;;;;;;;5093368;28;20199;-82
2021/12/21 12:37:50;;;;;;;1.97;1.83;;;;;;;;;;5093566;28;20196;-83
2021/12/21 12:40:19;;;;;;;1.60;1.50;;;;;;;;;;5093122;28;20679;-84
2021/12/21 12:42:55;;;;;;;7.77;5.43;;;;;;;;;;5093231;28;20211;-84
2021/12/21 12:45:23;;;;;;;4.80;4.07;;;;;;;;;;5093182;28;20180;-84
2021/12/21 12:47:54;;;;;;;2.20;2.07;;;;;;;;;;5103860;28;20195;-82
2021/12/21 12:50:23;;;;;;;2.60;2.40;;;;;;;;;;5113328;27;20191;-83
2021/12/21 12:52:53;;;;;;;2.13;1.80;;;;;;;;;;5113481;27;20195;-83
2021/12/21 12:55:21;;;;;;;2.60;2.03;;;;;;;;;;5092969;28;20193;-85
2021/12/21 12:57:54;;;;;;;1.80;1.70;;;;;;;;;;5100876;28;20195;-85
2021/12/21 13:00:24;;;;;;;2.77;2.10;;;;;;;;;;5100984;28;20199;-85
2021/12/21 13:02:54;;;;;;;2.50;2.30;;;;;;;;;;5106995;28;20730;-84
2021/12/21 13:05:25;;;;;;;11.83;5.63;;;;;;;;;;5095804;28;20198;-83
2021/12/21 13:07:54;;;;;;;5.10;2.40;;;;;;;;;;5101382;28;20227;-82
2021/12/21 13:10:24;;;;;;;2.23;1.80;;;;;;;;;;5105776;28;20679;-81
2021/12/21 13:12:58;;;;;;;2.53;2.03;;;;;;;;;;5103336;28;20279;-81
2021/12/21 13:15:36;;;;;;;2.40;2.20;;;;;;;;;;5107287;28;20190;-81
2021/12/21 13:18:08;;;;;;;2.63;1.73;;;;;;;;;;5095542;28;20282;-83
2021/12/21 13:20:37;;;;;;;2.37;2.17;;;;;;;;;;5105276;28;20196;-82
2021/12/21 13:23:17;;;;;;;2.90;2.50;;;;;;;;;;5105678;28;20217;-83
2021/12/21 13:26:05;;;;;;;2.80;2.60;;;;;;;;;;5112449;28;20604;-82
2021/12/21 13:28:37;;;;;;;3.07;2.77;;;;;;;;;;5094037;28;20199;-83
2021/12/21 13:31:08;;;;;;;3.53;2.93;;;;;;;;;;5105565;28;20202;-83
2021/12/21 13:33:40;;;;;;;2.73;2.50;;;;;;;;;;5103541;28;20196;-82
2021/12/21 13:36:09;;;;;;;3.37;3.07;;;;;;;;;;5101164;28;20211;-82
2021/12/21 13:38:44;;;;;;;3.83;2.77;;;;;;;;;;5103756;28;20283;-83
2021/12/21 13:41:13;;;;;;;2.30;2.10;;;;;;;;;;5101479;28;20194;-83
2021/12/21 13:43:53;;;;;;;2.80;2.50;;;;;;;;;;5104898;28;20653;-83
2021/12/21 13:46:20;;;;;;;2.20;2.00;;;;;;;;;;5105139;28;20215;-83
2021/12/21 13:48:52;;;;;;;2.50;2.27;;;;;;;;;;5097028;28;20223;-82
2021/12/21 13:51:20;;;;;;;3.20;2.70;;;;;;;;;;5097168;28;20187;-84
2021/12/21 13:53:50;;;;;;;2.83;2.60;;;;;;;;;;5095180;28;20192;-85
2021/12/21 13:56:19;;;;;;;3.90;2.50;;;;;;;;;;5092061;28;20238;-85
2021/12/21 13:58:47;;;;;;;2.60;2.10;;;;;;;;;;5095951;28;20196;-83
2021/12/21 14:01:29;;;;;;;2.20;2.00;;;;;;;;;;5110789;28;20683;-85
2021/12/21 14:03:58;;;;;;;4.33;3.37;;;;;;;;;;5092002;28;20230;-84
2021/12/21 14:06:26;;;;;;;2.20;2.00;;;;;;;;;;5092193;28;20203;-83
2021/12/21 14:08:57;;;;;;;1.90;1.80;;;;;;;;;;5102530;28;20745;-84
2021/12/21 14:11:27;;;;;;;2.57;2.37;;;;;;;;;;5108935;28;20188;-83
2021/12/21 14:13:55;;;;;;;3.03;2.40;;;;;;;;;;5101548;28;20198;-83
2021/12/21 14:16:24;;;;;;;2.87;2.50;;;;;;;;;;5108725;28;20249;-80
2021/12/21 14:18:52;;;;;;;2.77;2.23;;;;;;;;;;5100811;28;20579;-80
2021/12/21 14:21:20;;;;;;;1.60;1.50;;;;;;;;;;5111226;28;20196;-80
2021/12/21 14:23:52;;;;;;;12.97;9.33;;;;;;;;;;5110435;28;20215;-80
2021/12/21 14:26:24;;;;;;;6.20;5.20;;;;;;;;;;5111121;28;20194;-80
2021/12/21 14:28:59;;;;;;;3.83;2.57;;;;;;;;;;5111041;28;20190;-80
2021/12/21 14:31:30;;;;;;;3.13;1.77;;;;;;;;;;5110780;28;20199;-80
2021/12/21 14:34:00;;;;;;;3.27;2.90;;;;;;;;;;5111057;28;20207;-80
2021/12/21 14:36:28;;;;;;;4.63;3.33;;;;;;;;;;5111808;28;20217;-80
2021/12/21 14:38:58;;;;;;;3.47;2.93;;;;;;;;;;5112436;28;20218;-81
2021/12/21 14:41:30;;;;;;;4.33;2.30;;;;;;;;;;5112385;28;20625;-81
2021/12/21 14:44:02;;;;;;;8.20;6.50;;;;;;;;;;5112034;28;20294;-81
2021/12/21 14:46:29;;;;;;;6.70;4.33;;;;;;;;;;5111844;28;20286;-81
2021/12/21 14:49:06;;;;;;;7.37;6.27;;;;;;;;;;5112025;28;20248;-80
2021/12/21 14:51:49;;;;;;;9.93;6.00;;;;;;;;;;5112135;28;20237;-80
2021/12/21 14:54:24;;;;;;;4.33;3.93;;;;;;;;;;5112037;28;20264;-81
2021/12/21 14:56:54;;;;;;;3.23;2.87;;;;;;;;;;5111919;28;20188;-80
2021/12/21 14:59:31;;;;;;;4.50;3.60;;;;;;;;;;5112185;28;20196;-80
2021/12/21 15:02:04;;;;;;;6.53;3.90;;;;;;;;;;5112224;28;20187;-81
2021/12/21 15:04:31;;;;;;;3.60;3.20;;;;;;;;;;5111866;28;20302;-80
2021/12/21 15:06:59;;;;;;;4.30;3.90;;;;;;;;;;5111823;28;20625;-80
2021/12/21 15:09:26;;;;;;;5.20;4.53;;;;;;;;;;5111887;28;20612;-80
2021/12/21 15:11:57;;;;;;;5.27;4.77;;;;;;;;;;5111813;28;20660;-80
2021/12/21 15:14:25;;;;;;;4.47;3.90;;;;;;;;;;5111936;28;20186;-80
2021/12/21 15:16:52;;;;;;;16.33;8.47;;;;;;;;;;5096875;28;20254;-80
2021/12/21 15:19:20;;;;;;;5.67;4.67;;;;;;;;;;5093820;28;20196;-79
2021/12/21 15:21:48;;;;;;;3.40;3.03;;;;;;;;;;5105064;28;20328;-80
2021/12/21 15:24:15;;;;;;;8.60;3.80;;;;;;;;;;5115712;28;20258;-80
2021/12/21 15:26:42;;;;;;;5.50;4.20;;;;;;;;;;5115552;28;20198;-80
2021/12/21 15:29:11;;;;;;;6.70;5.33;;;;;;;;;;5115196;28;20586;-80